Sosva, Russia
Current Conditions -  °F | °C
As of 1:00 PM on Wednesday 22 Oct 2014 (Local Time) from USHH Reporting Station
Clear Clear  
Wind Chill: -2°   Ceiling: Unl
Heat Index: 12°   Visibility: 6mi
Dew Point:   Wind: 11mph
Humidity: 79%   Direction: 240°WSW
Pressure: 29.91"   Gusts: NA
Location:  63.65°N, 62.1°E
Report Text: USHH 220800Z 24005MPS CAVOK M11/M14 Q1013 NOSIG RMK QFE75624////50
Loading
Personal Weather Stations






























Interactive Weather Map
Tropical Storm Tracking
New forecast layout! Learn more

10-Day Weather Forecast

Advertisements
Track Severe Weather on mobile